createdAt,value
2023-04-17T00:00:08.371Z,15.55
2023-04-17T00:05:08.541Z,16.05
2023-04-17T00:10:08.609Z,16.30
2023-04-17T00:15:08.711Z,16.05
2023-04-17T00:20:08.814Z,16.98
2023-04-17T00:25:08.933Z,17.50
2023-04-17T00:30:07.978Z,17.10
2023-04-17T00:35:08.094Z,17.15
2023-04-17T00:40:08.185Z,18.85
2023-04-17T00:45:08.217Z,18.20
2023-04-17T00:50:08.318Z,17.52
2023-04-17T00:55:08.420Z,20.60
2023-04-17T01:00:08.453Z,18.13
2023-04-17T01:05:08.512Z,18.45
2023-04-17T01:10:08.610Z,19.13
2023-04-17T01:15:08.618Z,17.40
2023-04-17T01:20:08.684Z,18.75
2023-04-17T01:25:08.749Z,19.98
2023-04-17T01:30:08.869Z,18.42
2023-04-17T01:35:08.954Z,22.52
2023-04-17T01:40:08.006Z,19.30
2023-04-17T01:45:08.092Z,18.02
2023-04-17T01:50:08.109Z,22.40
2023-04-17T01:55:08.155Z,18.33
2023-04-17T02:00:08.279Z,20.67
2023-04-17T02:05:08.346Z,21.98
2023-04-17T02:10:08.473Z,20.35
2023-04-17T02:15:08.585Z,18.65
2023-04-17T02:20:08.663Z,20.40
2023-04-17T02:25:08.789Z,21.33
2023-04-17T02:30:08.868Z,19.65
2023-04-17T02:35:08.963Z,19.15
2023-04-17T02:40:08.031Z,22.45
2023-04-17T02:45:08.130Z,18.95
2023-04-17T02:50:08.215Z,18.33
2023-04-17T02:55:08.265Z,19.55
2023-04-17T03:00:12.762Z,19.52
2023-04-17T03:05:08.847Z,19.55
2023-04-17T03:10:08.948Z,20.10
2023-04-17T03:15:08.824Z,21.15
2023-04-17T03:20:08.112Z,23.00
2023-04-17T03:25:08.189Z,22.63
2023-04-17T03:30:08.170Z,21.95
2023-04-17T03:35:08.192Z,20.48
2023-04-17T03:40:08.231Z,21.33
2023-04-17T03:45:08.293Z,22.08
2023-04-17T03:50:08.348Z,21.80
2023-04-17T03:55:08.425Z,21.27
2023-04-17T04:00:08.478Z,23.40
2023-04-17T04:05:03.869Z,24.05
2023-04-17T04:10:03.564Z,25.65
2023-04-17T04:15:03.495Z,24.55
2023-04-17T04:20:03.247Z,26.15
2023-04-17T04:25:02.496Z,26.60
2023-04-17T04:30:03.780Z,28.67
2023-04-17T04:35:03.164Z,26.05
2023-04-17T04:40:02.870Z,24.05
2023-04-17T04:45:03.835Z,27.52
2023-04-17T04:50:03.488Z,25.42
2023-04-17T04:55:03.021Z,24.17
2023-04-17T05:00:02.406Z,23.95
2023-04-17T05:05:03.305Z,25.33
2023-04-17T05:10:02.639Z,26.85
2023-04-17T05:15:03.095Z,28.13
2023-04-17T05:20:02.222Z,23.75
2023-04-17T05:25:02.910Z,33.30
2023-04-17T05:30:03.120Z,28.15
2023-04-17T05:35:02.963Z,27.92
2023-04-17T05:40:02.496Z,26.02
2023-04-17T05:45:02.728Z,32.10
2023-04-17T05:50:02.950Z,30.63
2023-04-17T05:55:02.481Z,28.95
2023-04-17T06:00:02.778Z,30.20
2023-04-17T06:05:03.516Z,25.10
2023-04-17T06:10:03.109Z,29.23
2023-04-17T06:15:02.663Z,30.60
2023-04-17T06:20:03.197Z,33.17
2023-04-17T06:25:09.653Z,29.77
2023-04-17T06:30:03.107Z,34.33
2023-04-17T06:35:02.465Z,32.53
2023-04-17T06:40:03.790Z,32.08
2023-04-17T06:45:03.045Z,33.60
2023-04-17T06:50:02.512Z,30.90
2023-04-17T06:55:02.944Z,31.50
2023-04-17T07:00:02.433Z,32.60
2023-04-17T07:05:03.009Z,34.95
2023-04-17T07:10:02.685Z,32.45
2023-04-17T07:15:03.189Z,36.20
2023-04-17T07:20:04.111Z,30.08
2023-04-17T07:25:02.516Z,29.63
2023-04-17T07:30:03.336Z,32.15
2023-04-17T07:35:02.592Z,30.40
2023-04-17T07:40:02.971Z,31.48
2023-04-17T07:45:02.229Z,32.85
2023-04-17T07:50:02.582Z,33.67
2023-04-17T07:55:02.794Z,36.33
2023-04-17T08:00:03.371Z,32.97
2023-04-17T08:05:03.833Z,34.42
2023-04-17T08:10:03.243Z,33.00
2023-04-17T08:15:03.329Z,32.17
2023-04-17T08:20:02.788Z,31.25
2023-04-17T08:25:03.145Z,29.38
2023-04-17T08:30:02.811Z,29.75
2023-04-17T08:35:03.354Z,28.48
2023-04-17T08:40:02.718Z,28.63
2023-04-17T08:45:03.017Z,30.33
2023-04-17T08:50:02.179Z,27.42
2023-04-17T08:55:02.861Z,25.75
2023-04-17T09:00:03.218Z,28.52
2023-04-17T09:05:02.990Z,25.35
2023-04-17T09:10:02.341Z,24.35
2023-04-17T09:15:02.819Z,22.15
2023-04-17T09:20:03.666Z,21.58
2023-04-17T09:25:02.917Z,22.38
2023-04-17T09:30:03.602Z,20.60
2023-04-17T09:35:03.225Z,21.45
2023-04-17T09:40:02.532Z,17.88
2023-04-17T09:45:03.950Z,18.80
2023-04-17T09:50:02.126Z,17.48
2023-04-17T09:55:02.692Z,18.13
2023-04-17T10:00:03.109Z,14.73
2023-04-17T10:05:02.658Z,15.55
2023-04-17T10:10:02.908Z,16.52
2023-04-17T10:15:04.164Z,16.55
2023-04-17T10:20:02.804Z,15.63
2023-04-17T10:25:03.143Z,15.52
2023-04-17T10:30:03.350Z,13.52
2023-04-17T10:35:02.485Z,13.80
2023-04-17T10:40:03.101Z,12.48
2023-04-17T10:45:02.337Z,12.65
2023-04-17T10:50:02.648Z,13.68
2023-04-17T10:55:04.802Z,12.27
2023-04-17T11:00:05.480Z,12.98
2023-04-17T11:05:03.423Z,11.88
2023-04-17T11:10:03.184Z,11.20
2023-04-17T11:15:02.442Z,11.45
2023-04-17T11:20:03.290Z,10.82
2023-04-17T11:25:02.678Z,10.48
2023-04-17T11:30:03.197Z,9.85
2023-04-17T11:35:02.569Z,11.25
2023-04-17T11:40:02.912Z,10.32
2023-04-17T11:45:04.355Z,10.50
2023-04-17T11:50:03.498Z,11.77
2023-04-17T11:55:03.821Z,10.68
2023-04-17T12:00:03.099Z,10.23
2023-04-17T12:05:02.854Z,10.75
2023-04-17T12:10:02.578Z,9.63
2023-04-17T12:15:03.202Z,9.85
2023-04-17T12:20:02.722Z,10.25
2023-04-17T12:25:03.100Z,11.13
2023-04-17T12:30:02.442Z,9.98
2023-04-17T12:35:02.752Z,9.20
2023-04-17T12:40:03.079Z,8.55
2023-04-17T12:45:04.286Z,9.05
2023-04-17T12:50:02.491Z,7.90
2023-04-17T12:55:03.315Z,7.88
2023-04-17T13:00:03.397Z,9.60
2023-04-17T13:05:03.193Z,9.60
2023-04-17T13:10:03.290Z,9.13
2023-04-17T13:15:03.137Z,8.32
2023-04-17T13:20:03.639Z,6.88
2023-04-17T13:25:03.269Z,8.52
2023-04-17T13:30:02.853Z,9.20
2023-04-17T13:35:03.449Z,7.75
2023-04-17T13:40:03.098Z,7.32
2023-04-17T13:45:02.386Z,7.88
2023-04-17T13:50:02.864Z,7.90
2023-04-17T13:55:03.181Z,7.00
2023-04-17T14:00:03.181Z,10.95
2023-04-17T14:05:02.605Z,13.77
2023-04-17T14:10:02.919Z,11.75
2023-04-17T14:15:03.326Z,8.45
2023-04-17T14:20:02.928Z,6.55
2023-04-17T14:25:02.696Z,7.50
2023-04-17T14:30:04.106Z,7.13
2023-04-17T14:35:02.562Z,6.13
2023-04-17T14:40:03.326Z,5.93
2023-04-17T14:45:02.776Z,5.97
2023-04-17T14:50:04.061Z,6.65
2023-04-17T14:55:02.418Z,6.63
2023-04-17T15:00:02.987Z,4.90
2023-04-17T15:05:02.573Z,4.68
2023-04-17T15:10:02.750Z,5.30
2023-04-17T15:15:03.155Z,5.05
2023-04-17T15:20:02.408Z,5.40
2023-04-17T15:25:03.002Z,5.07
2023-04-17T15:30:02.176Z,4.95
2023-04-17T15:35:03.004Z,5.07
2023-04-17T15:40:02.221Z,6.07
2023-04-17T15:45:02.905Z,5.82
2023-04-17T15:50:03.198Z,6.57
2023-04-17T15:55:02.554Z,5.93
2023-04-17T16:00:02.769Z,7.07
2023-04-17T16:05:02.894Z,5.90
2023-04-17T16:10:03.265Z,7.00
2023-04-17T16:15:02.551Z,5.72
2023-04-17T16:20:03.225Z,5.30
2023-04-17T16:25:02.547Z,5.38
2023-04-17T16:30:03.287Z,5.70
2023-04-17T16:35:02.861Z,6.15
2023-04-17T16:40:03.179Z,4.70
2023-04-17T16:45:03.670Z,6.18
2023-04-17T16:50:03.113Z,6.45
2023-04-17T16:55:03.450Z,5.78
2023-04-17T17:00:02.775Z,5.70
2023-04-17T17:05:03.448Z,6.15
2023-04-17T17:10:02.993Z,6.20
2023-04-17T17:15:02.696Z,6.50
2023-04-17T17:20:02.390Z,6.35
2023-04-17T17:25:03.005Z,5.57
2023-04-17T17:30:02.193Z,6.60
2023-04-17T17:35:02.515Z,6.97
2023-04-17T17:40:02.997Z,7.55
2023-04-17T17:45:02.837Z,6.88
2023-04-17T17:50:03.094Z,6.97
2023-04-17T17:55:02.716Z,6.90
2023-04-17T18:00:03.152Z,7.32
2023-04-17T18:05:03.270Z,7.38
2023-04-17T18:10:02.410Z,6.97
2023-04-17T18:15:03.303Z,7.25
2023-04-17T18:20:02.509Z,6.93
2023-04-17T18:25:03.197Z,7.97
2023-04-17T18:30:02.711Z,7.30
2023-04-17T18:35:03.385Z,7.07
2023-04-17T18:40:02.983Z,6.43
2023-04-17T18:45:02.339Z,7.40
2023-04-17T18:50:02.706Z,7.53
2023-04-17T18:55:03.496Z,5.72
2023-04-17T19:00:02.898Z,6.25
2023-04-17T19:05:03.121Z,6.82
2023-04-17T19:10:02.743Z,6.13
2023-04-17T19:15:03.032Z,6.80
2023-04-17T19:20:02.812Z,6.03
2023-04-17T19:25:03.130Z,6.32
2023-04-17T19:30:03.111Z,6.00
2023-04-17T19:35:02.619Z,6.25
2023-04-17T19:40:08.678Z,6.43
2023-04-17T19:45:02.946Z,6.00
2023-04-17T19:50:02.659Z,5.30
2023-04-17T19:55:03.217Z,5.40
2023-04-17T20:00:02.626Z,5.40
2023-04-17T20:05:03.053Z,5.63
2023-04-17T20:10:02.337Z,5.20
2023-04-17T20:15:03.914Z,4.88
2023-04-17T20:20:03.402Z,5.28
2023-04-17T20:25:02.771Z,5.32
2023-04-17T20:30:03.543Z,4.72
2023-04-17T20:35:03.052Z,4.32
2023-04-17T20:40:02.610Z,4.40
2023-04-17T20:45:03.211Z,4.40
2023-04-17T20:50:02.423Z,4.78
2023-04-17T20:55:03.857Z,5.78
2023-04-17T21:00:03.258Z,5.10
2023-04-17T21:05:15.301Z,5.60
2023-04-17T21:10:08.358Z,5.93
2023-04-17T21:15:08.419Z,6.85
2023-04-17T21:20:08.476Z,5.80
2023-04-17T21:25:08.530Z,5.05
2023-04-17T21:30:08.575Z,5.82
2023-04-17T21:35:08.612Z,4.78
2023-04-17T21:40:08.731Z,6.30
2023-04-17T21:45:08.825Z,5.70
2023-04-17T21:50:08.948Z,6.07
2023-04-17T21:55:08.025Z,5.63
2023-04-17T22:00:08.186Z,5.90
2023-04-17T22:05:08.227Z,5.90
2023-04-17T22:10:08.356Z,6.43
2023-04-17T22:15:08.451Z,6.28
2023-04-17T22:20:08.563Z,7.38
2023-04-17T22:25:08.647Z,7.13
2023-04-17T22:30:08.830Z,5.72
2023-04-17T22:35:08.926Z,6.47
2023-04-17T22:40:09.001Z,5.35
2023-04-17T22:45:08.036Z,6.00
2023-04-17T22:50:08.126Z,6.25
2023-04-17T22:55:08.198Z,6.07
2023-04-17T23:01:13.269Z,6.40
2023-04-17T23:05:08.333Z,5.55
2023-04-17T23:10:08.526Z,5.50
2023-04-17T23:15:08.608Z,5.45
2023-04-17T23:20:08.705Z,5.82
2023-04-17T23:25:08.780Z,5.63
2023-04-17T23:30:08.966Z,5.40
2023-04-17T23:35:08.085Z,6.30
2023-04-17T23:40:08.195Z,6.18
2023-04-17T23:45:08.256Z,5.78
2023-04-17T23:50:08.389Z,5.93
2023-04-17T23:55:08.500Z,6.10
